Time;durP1;ratioP1;P1;durP2;ratioP2;P2;SDS_P1;SDS_P2;PMS_P1;PMS_P2;Temp;Humidity;BMP_temperature;BMP_pressure;BME280_temperature;BME280_humidity;BME280_pressure;Samples;Min_cycle;Max_cycle;Signal;HPM_P1;HPM_P2
2024/01/18 07:30:09;;;;;;;42.08;11.30;;;15.90;99.90;;;;;;5833027;23;20161;-77
2024/01/18 07:32:35;;;;;;;44.97;12.75;;;16.00;99.90;;;;;;4878894;29;20041;-78
2024/01/18 07:35:02;;;;;;;48.13;11.65;;;15.90;99.90;;;;;;4880274;29;20044;-78
2024/01/18 07:37:29;;;;;;;37.10;12.60;;;15.90;99.90;;;;;;4880571;29;20071;-78
2024/01/18 07:40:01;;;;;;;44.60;12.38;;;16.00;99.90;;;;;;4880595;29;20025;-78
2024/01/18 07:42:32;;;;;;;34.55;12.98;;;16.10;99.90;;;;;;4842080;29;20034;-78
2024/01/18 07:44:59;;;;;;;49.25;14.77;;;16.30;99.90;;;;;;4859885;29;20033;-78
2024/01/18 07:47:26;;;;;;;39.78;14.57;;;16.40;99.90;;;;;;4860524;29;20041;-79
2024/01/18 07:49:53;;;;;;;33.55;15.52;;;16.50;99.90;;;;;;4861706;29;20025;-79
2024/01/18 07:52:20;;;;;;;47.88;17.42;;;16.50;99.90;;;;;;4849613;29;20086;-79
2024/01/18 07:54:49;;;;;;;37.63;16.60;;;16.70;99.90;;;;;;4861063;29;20032;-79
2024/01/18 07:57:19;;;;;;;48.42;15.82;;;16.70;99.90;;;;;;4861526;29;20032;-79
2024/01/18 07:59:45;;;;;;;34.47;16.55;;;16.90;99.90;;;;;;4859727;29;20582;-79
2024/01/18 08:02:12;;;;;;;42.85;16.92;;;16.90;99.90;;;;;;4861098;29;20066;-79
2024/01/18 08:04:38;;;;;;;37.17;17.40;;;17.10;99.90;;;;;;4861175;29;20116;-79
2024/01/18 08:07:05;;;;;;;35.65;16.33;;;17.10;99.90;;;;;;4860867;29;20473;-79
2024/01/18 08:09:31;;;;;;;41.33;17.17;;;17.20;99.90;;;;;;4861075;29;20033;-79
2024/01/18 08:12:00;;;;;;;36.15;18.10;;;17.40;99.90;;;;;;4875014;29;20060;-79
2024/01/18 08:14:27;;;;;;;29.42;17.92;;;17.60;99.90;;;;;;4846309;29;20033;-80
2024/01/18 08:16:54;;;;;;;41.97;19.40;;;17.70;99.90;;;;;;4860626;29;20487;-79
2024/01/18 08:19:21;;;;;;;43.97;18.15;;;17.90;99.90;;;;;;4860498;29;20076;-79
2024/01/18 08:21:48;;;;;;;37.83;17.90;;;18.00;99.90;;;;;;4873497;29;20029;-79
2024/01/18 08:24:14;;;;;;;42.30;17.05;;;18.00;99.90;;;;;;4864772;29;20518;-79
2024/01/18 08:26:41;;;;;;;44.67;15.93;;;18.00;99.90;;;;;;4860451;29;20053;-79
2024/01/18 08:29:08;;;;;;;30.88;16.73;;;18.00;99.90;;;;;;4860630;29;20374;-78
2024/01/18 08:31:35;;;;;;;38.03;16.88;;;18.10;99.90;;;;;;4864147;29;20045;-78
2024/01/18 08:34:02;;;;;;;42.17;16.83;;;18.20;99.90;;;;;;4860623;29;20106;-78
2024/01/18 08:36:28;;;;;;;42.25;15.63;;;18.20;99.90;;;;;;4844431;29;20048;-77
2024/01/18 08:38:55;;;;;;;31.63;15.77;;;18.20;99.90;;;;;;4866498;29;20060;-78
2024/01/18 08:41:21;;;;;;;28.15;15.15;;;18.40;99.90;;;;;;4853131;29;20040;-78
2024/01/18 08:43:48;;;;;;;32.03;16.42;;;18.40;99.90;;;;;;4855130;29;20044;-78
2024/01/18 08:46:14;;;;;;;40.13;16.23;;;18.40;99.90;;;;;;4862751;29;20064;-78
2024/01/18 08:48:41;;;;;;;43.80;16.88;;;18.40;99.90;;;;;;4879532;29;20486;-78
2024/01/18 08:51:12;;;;;;;32.70;16.15;;;18.30;99.90;;;;;;4878030;29;20185;-78
2024/01/18 08:53:43;;;;;;;25.02;15.95;;;18.40;99.90;;;;;;4879349;29;20506;-78
2024/01/18 08:56:09;;;;;;;35.67;16.05;;;18.50;99.90;;;;;;4879053;29;20502;-78
2024/01/18 08:58:36;;;;;;;27.30;15.73;;;18.40;99.90;;;;;;4878779;29;20493;-79
2024/01/18 09:01:03;;;;;;;36.42;15.90;;;18.40;99.90;;;;;;4866721;29;20025;-78
2024/01/18 09:03:29;;;;;;;33.92;16.20;;;18.50;99.90;;;;;;4861222;29;20104;-78
2024/01/18 09:05:56;;;;;;;38.08;15.95;;;18.60;99.90;;;;;;4860756;29;20037;-78
2024/01/18 09:08:23;;;;;;;34.35;15.82;;;18.60;99.90;;;;;;4860649;29;20380;-78
2024/01/18 09:10:50;;;;;;;26.95;16.42;;;18.60;99.90;;;;;;4862501;29;20477;-78
2024/01/18 09:13:16;;;;;;;32.08;17.02;;;18.60;99.90;;;;;;4879131;29;20025;-78
2024/01/18 09:15:42;;;;;;;37.05;16.52;;;18.70;99.90;;;;;;4880405;29;20368;-78
2024/01/18 09:18:09;;;;;;;35.58;16.65;;;18.90;99.90;;;;;;4864473;29;20022;-78
2024/01/18 09:20:35;;;;;;;29.95;16.60;;;19.00;99.90;;;;;;4866488;29;20034;-78
2024/01/18 09:23:01;;;;;;;31.67;16.55;;;19.00;99.90;;;;;;4882828;29;20104;-78
2024/01/18 09:25:27;;;;;;;34.67;16.55;;;19.20;99.90;;;;;;4883062;29;20364;-78
2024/01/18 09:27:54;;;;;;;33.97;16.90;;;19.30;99.90;;;;;;4866079;29;20036;-80
2024/01/18 09:30:20;;;;;;;28.60;17.60;;;19.40;99.90;;;;;;4881085;29;20401;-78
2024/01/18 09:32:47;;;;;;;31.70;17.65;;;19.40;99.90;;;;;;4863958;29;20064;-79
2024/01/18 09:35:14;;;;;;;32.70;18.50;;;19.60;99.90;;;;;;4850333;29;20388;-84
2024/01/18 09:37:41;;;;;;;26.83;17.75;;;19.70;99.90;;;;;;4862127;29;20087;-83
2024/01/18 09:40:11;;;;;;;27.80;18.45;;;19.70;99.90;;;;;;4846863;29;20064;-83
2024/01/18 09:42:43;;;;;;;25.58;18.33;;;19.60;99.90;;;;;;4857723;29;20061;-83
2024/01/18 09:45:14;;;;;;;32.47;18.25;;;19.50;99.90;;;;;;4862540;29;20029;-83
2024/01/18 09:47:42;;;;;;;33.97;19.08;;;19.50;99.90;;;;;;4854023;29;20493;-83
2024/01/18 09:50:09;;;;;;;33.65;19.70;;;19.50;99.90;;;;;;4834262;29;20535;-83
2024/01/18 09:52:37;;;;;;;29.15;19.50;;;19.80;99.90;;;;;;4854503;29;20062;-83
2024/01/18 09:55:04;;;;;;;30.75;19.98;;;19.80;99.90;;;;;;4832689;29;20046;-84
2024/01/18 09:57:34;;;;;;;30.95;19.95;;;20.00;99.90;;;;;;4846704;29;20034;-84
2024/01/18 10:00:05;;;;;;;29.80;20.50;;;20.20;99.90;;;;;;4877983;29;20061;-84
2024/01/18 10:02:37;;;;;;;43.83;20.90;;;20.20;99.90;;;;;;4853834;29;20101;-83
2024/01/18 10:05:06;;;;;;;33.40;20.77;;;20.20;99.90;;;;;;4880971;29;20041;-83
2024/01/18 10:07:32;;;;;;;33.67;19.60;;;20.40;99.90;;;;;;4871643;29;20036;-83
2024/01/18 10:09:58;;;;;;;31.77;18.77;;;20.60;99.90;;;;;;4862271;29;20158;-84
2024/01/18 10:12:32;;;;;;;32.50;19.90;;;20.80;99.90;;;;;;4877788;29;20494;-84
2024/01/18 10:14:59;;;;;;;33.88;18.80;;;21.00;99.90;;;;;;4865331;29;20048;-83
2024/01/18 10:17:29;;;;;;;36.65;18.92;;;21.30;99.90;;;;;;4880874;29;20108;-83
2024/01/18 10:19:57;;;;;;;27.23;18.40;;;21.40;99.90;;;;;;4865181;29;20173;-83
2024/01/18 10:22:24;;;;;;;38.72;19.92;;;21.40;99.90;;;;;;4861981;29;20029;-83
2024/01/18 10:24:51;;;;;;;28.42;19.35;;;21.30;99.90;;;;;;4863163;29;20033;-83
2024/01/18 10:27:23;;;;;;;33.90;21.33;;;21.30;99.90;;;;;;4847078;29;20025;-82
2024/01/18 10:29:54;;;;;;;30.92;21.20;;;21.20;99.90;;;;;;4861622;29;20037;-82
2024/01/18 10:32:21;;;;;;;31.45;21.40;;;21.20;99.90;;;;;;4843211;29;20046;-82
2024/01/18 10:34:51;;;;;;;32.60;21.85;;;21.20;99.90;;;;;;4828078;29;20412;-82
2024/01/18 10:37:18;;;;;;;31.88;21.65;;;21.30;99.90;;;;;;4828024;29;20034;-83
2024/01/18 10:39:46;;;;;;;27.00;21.88;;;21.20;99.90;;;;;;4827983;29;20040;-83
2024/01/18 10:42:14;;;;;;;31.00;23.67;;;21.10;99.90;;;;;;4841528;29;20070;-82
2024/01/18 10:44:43;;;;;;;31.40;24.02;;;21.30;99.90;;;;;;4878653;29;20026;-82
2024/01/18 10:47:14;;;;;;;32.85;24.20;;;21.20;99.90;;;;;;4862822;29;20030;-82
2024/01/18 10:49:41;;;;;;;34.28;24.67;;;21.30;99.90;;;;;;4862029;29;20090;-82
2024/01/18 10:52:09;;;;;;;34.00;24.50;;;21.30;99.90;;;;;;4840347;29;20395;-82
2024/01/18 10:54:37;;;;;;;28.75;25.23;;;21.40;99.90;;;;;;4861516;29;20510;-82
2024/01/18 10:57:05;;;;;;;34.00;25.17;;;21.40;99.90;;;;;;4849116;29;20061;-82
2024/01/18 10:59:31;;;;;;;28.85;25.80;;;21.50;99.90;;;;;;4862449;29;20416;-83
2024/01/18 11:01:59;;;;;;;29.00;25.95;;;21.50;99.90;;;;;;4874512;29;20101;-82
2024/01/18 11:04:33;;;;;;;29.10;26.45;;;21.40;99.90;;;;;;4845569;29;20443;-82
2024/01/18 11:07:01;;;;;;;30.50;27.30;;;21.50;99.90;;;;;;4845831;29;20101;-82
2024/01/18 11:09:34;;;;;;;29.67;26.90;;;21.50;99.90;;;;;;4845525;29;20506;-82
2024/01/18 11:12:03;;;;;;;33.23;28.00;;;21.60;99.90;;;;;;4833101;29;20065;-81
2024/01/18 11:14:30;;;;;;;38.15;28.13;;;21.60;99.90;;;;;;4845610;29;20495;-81
2024/01/18 11:17:12;;;;;;;35.20;27.70;;;21.50;99.90;;;;;;4876720;29;20076;-82
2024/01/18 11:19:46;;;;;;;31.75;28.50;;;21.70;99.90;;;;;;4859976;29;20475;-82
2024/01/18 11:22:25;;;;;;;35.60;28.17;;;21.70;99.90;;;;;;4860348;29;20556;-80
2024/01/18 11:24:52;;;;;;;30.83;27.90;;;21.80;99.90;;;;;;4861159;29;20112;-80
2024/01/18 11:27:25;;;;;;;31.33;28.40;;;22.00;99.90;;;;;;4862262;29;20026;-81
2024/01/18 11:29:53;;;;;;;32.72;29.60;;;22.10;99.90;;;;;;4859632;29;20086;-80
2024/01/18 11:32:20;;;;;;;34.60;29.50;;;22.10;99.90;;;;;;4874390;29;20451;-80
2024/01/18 11:34:50;;;;;;;31.90;28.92;;;22.10;99.90;;;;;;4830146;29;20036;-80
2024/01/18 11:37:18;;;;;;;31.15;27.83;;;21.90;99.90;;;;;;4860372;29;20387;-81
2024/01/18 11:39:48;;;;;;;37.47;29.23;;;21.90;99.90;;;;;;4857089;29;20040;-81
2024/01/18 11:42:25;;;;;;;34.15;28.38;;;21.80;99.90;;;;;;4860636;29;20596;-81
2024/01/18 11:45:04;;;;;;;32.45;29.33;;;21.80;99.90;;;;;;4875575;29;20032;-81
2024/01/18 11:47:37;;;;;;;32.03;28.58;;;21.80;99.90;;;;;;4861926;29;20026;-81
2024/01/18 11:50:08;;;;;;;31.35;28.23;;;21.80;99.90;;;;;;4872387;29;20025;-81
2024/01/18 11:52:37;;;;;;;31.30;27.85;;;21.90;99.90;;;;;;4879106;29;20036;-81
2024/01/18 11:55:05;;;;;;;31.02;27.83;;;21.90;99.90;;;;;;4879018;29;20033;-81
2024/01/18 11:57:33;;;;;;;32.97;28.70;;;21.90;99.90;;;;;;4880238;29;20037;-81
2024/01/18 12:00:00;;;;;;;32.88;28.23;;;21.90;99.90;;;;;;4878940;29;20053;-80
2024/01/18 12:02:30;;;;;;;30.52;27.45;;;21.90;99.90;;;;;;4878147;29;20029;-81
2024/01/18 12:04:57;;;;;;;34.40;29.35;;;21.90;99.90;;;;;;4863380;29;20486;-81
2024/01/18 12:07:25;;;;;;;31.35;28.67;;;21.90;99.90;;;;;;4865592;29;20034;-81
2024/01/18 12:09:52;;;;;;;33.15;29.90;;;21.70;99.90;;;;;;4860330;29;20025;-81
2024/01/18 12:12:19;;;;;;;33.05;29.25;;;21.90;99.90;;;;;;4874268;29;20036;-80
2024/01/18 12:14:47;;;;;;;32.47;28.38;;;22.00;99.90;;;;;;4879790;29;20033;-80
2024/01/18 12:17:15;;;;;;;35.40;28.55;;;22.00;99.90;;;;;;4879861;29;20494;-81
2024/01/18 12:19:45;;;;;;;31.63;28.55;;;21.80;99.90;;;;;;4862989;29;20191;-82
2024/01/18 12:22:14;;;;;;;31.13;28.17;;;21.90;99.90;;;;;;4844410;29;20026;-80
2024/01/18 12:24:42;;;;;;;31.15;28.60;;;21.90;99.90;;;;;;4862109;29;20034;-81
2024/01/18 12:27:15;;;;;;;31.77;28.63;;;21.70;99.90;;;;;;4844626;29;20029;-80
2024/01/18 12:29:43;;;;;;;31.73;28.67;;;21.70;99.90;;;;;;4861055;29;20109;-80
2024/01/18 12:32:09;;;;;;;31.80;28.70;;;21.60;99.90;;;;;;4829127;29;20053;-80
2024/01/18 12:34:37;;;;;;;31.35;28.55;;;21.50;99.90;;;;;;4844368;29;20029;-80
2024/01/18 12:37:04;;;;;;;32.15;29.45;;;21.50;99.90;;;;;;4859891;29;20140;-80
2024/01/18 12:39:33;;;;;;;31.05;28.85;;;21.50;99.90;;;;;;4860936;29;20022;-81
2024/01/18 12:42:01;;;;;;;32.85;29.30;;;21.40;99.90;;;;;;4860742;29;20514;-81
2024/01/18 12:44:29;;;;;;;31.45;28.83;;;21.40;99.90;;;;;;4855738;29;20034;-80
2024/01/18 12:46:56;;;;;;;31.05;28.60;;;21.50;99.90;;;;;;4861257;29;20451;-81
2024/01/18 12:49:25;;;;;;;30.70;28.30;;;21.40;99.90;;;;;;4859014;29;20058;-81
2024/01/18 12:51:57;;;;;;;32.42;29.70;;;21.50;99.90;;;;;;4853147;29;20136;-81
2024/01/18 12:54:25;;;;;;;32.00;29.38;;;21.30;99.90;;;;;;4855553;29;20030;-81
2024/01/18 12:56:59;;;;;;;32.95;30.02;;;21.40;99.90;;;;;;4846889;29;20081;-80
2024/01/18 12:59:29;;;;;;;31.35;28.88;;;21.40;99.90;;;;;;4859511;29;20030;-81
2024/01/18 13:01:56;;;;;;;32.78;29.48;;;21.30;99.90;;;;;;4860901;29;20089;-81
2024/01/18 13:04:26;;;;;;;31.50;28.90;;;21.20;99.90;;;;;;4879151;29;20051;-81
2024/01/18 13:06:54;;;;;;;31.40;28.90;;;21.20;99.90;;;;;;4877047;29;20033;-81
2024/01/18 13:09:26;;;;;;;31.80;28.95;;;21.20;99.90;;;;;;4861940;29;20029;-83
2024/01/18 23:25:57;;;;;;;29.25;7.28;;;13.60;99.90;;;;;;4967713;23;20061;-82
2024/01/18 23:28:25;;;;;;;23.67;6.93;;;13.60;99.90;;;;;;4833690;29;20025;-80
2024/01/18 23:30:51;;;;;;;19.20;6.45;;;13.60;99.90;;;;;;4846007;29;20403;-84
2024/01/18 23:33:18;;;;;;;23.92;6.90;;;13.60;99.90;;;;;;4815126;29;20041;-81
2024/01/18 23:35:45;;;;;;;28.40;7.55;;;13.60;99.90;;;;;;4830623;29;20061;-80
2024/01/18 23:38:13;;;;;;;28.95;7.82;;;13.50;99.90;;;;;;4815520;29;20065;-82
2024/01/18 23:40:45;;;;;;;26.98;7.10;;;13.50;99.90;;;;;;4816453;29;20454;-81
2024/01/18 23:43:12;;;;;;;27.83;7.43;;;13.50;99.90;;;;;;4816635;29;20113;-78
2024/01/18 23:45:38;;;;;;;25.38;7.50;;;13.50;99.90;;;;;;4861470;29;20021;-78
2024/01/18 23:48:05;;;;;;;33.70;7.85;;;13.50;99.90;;;;;;4876387;29;20040;-81
2024/01/18 23:50:34;;;;;;;29.25;8.30;;;13.50;99.90;;;;;;4845724;29;20029;-78
2024/01/18 23:53:13;;;;;;;21.05;7.32;;;13.50;99.90;;;;;;4860876;29;20513;-78
2024/01/18 23:55:40;;;;;;;20.92;6.63;;;13.40;99.90;;;;;;4845635;29;20033;-78
2024/01/18 23:58:06;;;;;;;39.33;8.35;;;13.40;99.90;;;;;;4830205;29;20029;-76
